< < Back
Terminal Aerodrome Forecast


Current Version              Previous Versions:   1  2  3  4  5  6  7  8  9  

Terminal Aerodrome Forecast

398
FTUS42 KMLB 051629 AAB
TAFMCO
TAF AMD
KMCO 051629Z 0516/0612 07004KT P6SM FEW030 FEW150 SCT250
     FM051700 06005KT P6SM VCTS SCT040CB BKN080
      TEMPO 0518/0521 3SM TSRA BKN035CB BKN070
     FM052200 06009KT P6SM VCSH SCT040 BKN120
     FM060300 05003KT P6SM BKN120 BKN200=

Latest METAR

941
SAUS70 KWBC 051600 RRB
MTRMCO
METAR KMCO 051553Z 07004KT 10SM FEW030 FEW150 SCT250 31/22 A3003 RMK AO2
SLP169 T03110222 $


USA.gov is the U.S. government's official web portal to all federal, state and local government web resources and services.